Mc Neil, Arkansas
Current Conditions -  °F | °C
As of 1:53 AM on Tuesday 27 Jan 2015 (Local Time) from KELD Reporting Station
Clear Clear  
Wind Chill: 40°   Ceiling: Unl
Heat Index: 40°   Visibility: 10mi
Dew Point: 36°   Wind: 3mph
Humidity: 86%   Direction: 230°SW
Pressure: 30.04"   Gusts: NA
Location:  33.3852°N, 93.1737°W
Report Text: KELD 270753Z AUTO 23003KT 10SM CLR 04/02 A3004 RMK AO2 SLP171 T00440022
Loading
Personal Weather Stations






























Interactive Weather Map New forecast layout! Learn more

10-Day Weather Forecast

Advertisements
Track Severe Weather on mobile